Time;durP1;ratioP1;P1;durP2;ratioP2;P2;SDS_P1;SDS_P2;PMS_P1;PMS_P2;Temp;Humidity;BMP_temperature;BMP_pressure;BME280_temperature;BME280_humidity;BME280_pressure;Samples;Min_cycle;Max_cycle;Signal;HPM_P1;HPM_P2
2022/06/08 00:00:00;;;;;;;;;;;;;;;16.64;100.00;99279.03;5031517;28;819;-62
2022/06/08 00:02:28;;;;;;;;;;;;;;;16.67;100.00;99278.16;5032255;28;775;-62
2022/06/08 00:04:55;;;;;;;;;;;;;;;16.69;100.00;99270.09;5031700;28;891;-62
2022/06/08 00:07:22;;;;;;;;;;;;;;;16.68;100.00;99266.50;5031830;28;803;-62
2022/06/08 00:09:48;;;;;;;;;;;;;;;16.68;100.00;99262.94;5031585;28;807;-62
2022/06/08 00:12:15;;;;;;;;;;;;;;;16.67;100.00;99255.81;5031487;28;1890;-62
2022/06/08 00:14:42;;;;;;;;;;;;;;;16.67;100.00;99255.81;5031833;28;814;-62
2022/06/08 00:17:09;;;;;;;;;;;;;;;16.68;100.00;99257.38;5031405;28;858;-62
2022/06/08 00:19:35;;;;;;;;;;;;;;;16.66;100.00;99257.03;5033309;28;783;-62
2022/06/08 00:22:02;;;;;;;;;;;;;;;16.62;100.00;99256.41;5035381;28;977;-61
2022/06/08 00:24:29;;;;;;;;;;;;;;;16.62;100.00;99257.19;5035361;28;890;-62
2022/06/08 00:26:56;;;;;;;;;;;;;;;16.65;100.00;99255.50;5035238;28;865;-62
2022/06/08 00:29:22;;;;;;;;;;;;;;;16.66;100.00;99257.03;5035342;28;1222;-62
2022/06/08 00:31:49;;;;;;;;;;;;;;;16.62;100.00;99245.25;5035197;28;819;-62
2022/06/08 00:34:16;;;;;;;;;;;;;;;16.61;100.00;99257.66;5017303;28;1914;-62
2022/06/08 00:36:43;;;;;;;;;;;;;;;16.61;100.00;99257.66;5035067;28;890;-61
2022/06/08 00:39:09;;;;;;;;;;;;;;;16.61;100.00;99260.44;5035056;28;847;-62
2022/06/08 00:41:55;;;;;;;;;;;;;;;16.58;100.00;99256.56;5017299;28;2431;-61
2022/06/08 00:44:27;;;;;;;;;;;;;;;16.48;100.00;99258.50;5034922;28;873;-62
2022/06/08 00:46:54;;;;;;;;;;;;;;;16.34;100.00;99253.47;5034962;28;878;-61
2022/06/08 00:49:25;;;;;;;;;;;;;;;16.19;100.00;99258.00;5035221;28;780;-62
2022/06/08 00:51:52;;;;;;;;;;;;;;;16.03;100.00;99250.63;5034854;28;897;-62
2022/06/08 00:54:28;;;;;;;;;;;;;;;15.86;100.00;99252.81;5034734;28;1878;-61
2022/06/08 00:56:58;;;;;;;;;;;;;;;15.70;100.00;99248.16;5034734;28;799;-61
2022/06/08 00:59:25;;;;;;;;;;;;;;;15.61;100.00;99242.50;5034617;28;807;-61
2022/06/08 01:01:52;;;;;;;;;;;;;;;15.62;100.00;99244.84;5034649;28;827;-61
2022/06/08 01:04:19;;;;;;;;;;;;;;;15.65;100.00;99246.72;5034588;28;874;-61
2022/06/08 01:06:51;;;;;;;;;;;;;;;15.68;100.00;99243.06;5034517;28;787;-61
2022/06/08 01:09:23;;;;;;;;;;;;;;;15.75;100.00;99239.25;5034834;28;775;-62
2022/06/08 01:11:51;;;;;;;;;;;;;;;15.83;100.00;99248.94;5034475;28;803;-61
2022/06/08 01:14:19;;;;;;;;;;;;;;;15.88;100.00;99244.78;5034299;28;1882;-61
2022/06/08 01:16:54;;;;;;;;;;;;;;;15.85;100.00;99240.91;5034397;28;815;-61
2022/06/08 01:19:21;;;;;;;;;;;;;;;15.80;100.00;99244.25;5034499;28;890;-61
2022/06/08 01:21:54;;;;;;;;;;;;;;;15.75;100.00;99247.63;5034295;28;893;-61
2022/06/08 01:24:21;;;;;;;;;;;;;;;15.73;100.00;99241.72;5034369;28;823;-61
2022/06/08 01:26:59;;;;;;;;;;;;;;;15.73;100.00;99240.94;5034169;28;818;-61
2022/06/08 01:29:26;;;;;;;;;;;;;;;15.82;100.00;99235.44;5034243;28;1221;-61
2022/06/08 01:32:00;;;;;;;;;;;;;;;15.95;100.00;99230.59;5033012;28;885;-61
2022/06/08 01:34:27;;;;;;;;;;;;;;;16.05;100.00;99232.22;5034171;28;1958;-61
2022/06/08 01:37:07;;;;;;;;;;;;;;;16.10;100.00;99228.84;5034250;28;811;-61
2022/06/08 01:39:34;;;;;;;;;;;;;;;16.12;100.00;99222.81;5034069;28;807;-61
2022/06/08 01:42:24;;;;;;;;;;;;;;;16.15;100.00;99235.06;5033873;28;944;-61
2022/06/08 01:47:59;;;;;;;;;;;;;;;16.26;100.00;99233.44;5034119;28;633;-61
2022/06/08 01:50:33;;;;;;;;;;;;;;;16.26;100.00;99229.88;5033794;28;851;-61
2022/06/08 01:53:11;;;;;;;;;;;;;;;16.21;100.00;99224.88;5033675;28;2242;-61
2022/06/08 01:55:44;;;;;;;;;;;;;;;16.12;100.00;99231.94;5033602;28;827;-61
2022/06/08 01:58:22;;;;;;;;;;;;;;;16.07;100.00;99229.75;5033594;28;779;-61
2022/06/08 02:00:57;;;;;;;;;;;;;;;15.97;100.00;99228.13;5033616;28;811;-61
2022/06/08 02:03:26;;;;;;;;;;;;;;;15.94;100.00;99229.03;5033536;28;906;-61
2022/06/08 02:06:11;;;;;;;;;;;;;;;15.97;100.00;99233.69;5033482;28;830;-61
2022/06/08 02:08:46;;;;;;;;;;;;;;;16.02;100.00;99226.75;5033415;28;826;-62
2022/06/08 02:11:21;;;;;;;;;;;;;;;16.00;100.00;99226.44;5033326;28;815;-61
2022/06/08 02:13:51;;;;;;;;;;;;;;;15.96;100.00;99226.59;5033192;28;1918;-61
2022/06/08 02:16:24;;;;;;;;;;;;;;;15.88;100.00;99219.72;5033285;28;834;-61
2022/06/08 02:18:56;;;;;;;;;;;;;;;15.76;100.00;99224.09;5033228;28;823;-61
2022/06/08 02:21:26;;;;;;;;;;;;;;;15.65;100.00;99216.09;5033117;28;867;-61
2022/06/08 02:23:59;;;;;;;;;;;;;;;15.57;100.00;99220.34;5033254;28;906;-61
2022/06/08 02:26:31;;;;;;;;;;;;;;;15.51;100.00;99219.34;5032945;28;889;-61
2022/06/08 02:29:00;;;;;;;;;;;;;;;15.48;100.00;99223.81;5032934;28;1401;-62
2022/06/08 02:31:30;;;;;;;;;;;;;;;15.44;100.00;99223.16;5032918;28;799;-61
2022/06/08 02:36:59;;;;;;;;;;;;;;;15.43;100.00;99229.19;5033203;28;688;-61
2022/06/08 02:39:46;;;;;;;;;;;;;;;15.42;100.00;99224.84;5032791;28;795;-61
2022/06/08 02:42:21;;;;;;;;;;;;;;;15.45;100.00;99218.41;5014181;28;1426;-62
2022/06/08 02:44:50;;;;;;;;;;;;;;;15.44;100.00;99231.53;5032623;28;863;-61
2022/06/08 02:47:20;;;;;;;;;;;;;;;15.47;100.00;99232.66;5032644;28;799;-61
2022/06/08 02:49:46;;;;;;;;;;;;;;;15.48;100.00;99236.97;5032997;28;800;-61
2022/06/08 02:52:22;;;;;;;;;;;;;;;15.44;100.00;99241.88;5032803;28;875;-61
2022/06/08 02:54:49;;;;;;;;;;;;;;;15.40;100.00;99249.56;5032522;28;877;-61
2022/06/08 02:57:16;;;;;;;;;;;;;;;15.36;100.00;99251.69;5032436;28;823;-61
2022/06/08 02:59:42;;;;;;;;;;;;;;;15.29;100.00;99245.13;5032522;28;814;-61
2022/06/08 03:02:13;;;;;;;;;;;;;;;15.32;100.00;99254.63;5032358;28;882;-61
2022/06/08 03:04:45;;;;;;;;;;;;;;;15.41;100.00;99253.94;5032580;28;843;-61
2022/06/08 03:07:14;;;;;;;;;;;;;;;15.49;100.00;99255.22;5032291;28;803;-61
2022/06/08 03:09:41;;;;;;;;;;;;;;;15.54;100.00;99246.31;5032329;28;870;-61
2022/06/08 03:12:11;;;;;;;;;;;;;;;15.63;100.00;99248.41;5032077;28;791;-63
2022/06/08 03:14:39;;;;;;;;;;;;;;;15.76;100.00;99246.38;5032182;28;1886;-61
2022/06/08 03:17:07;;;;;;;;;;;;;;;15.85;100.00;99245.66;5032187;28;857;-61
2022/06/08 03:19:35;;;;;;;;;;;;;;;15.95;100.00;99249.31;5032183;28;846;-62
2022/06/08 03:22:02;;;;;;;;;;;;;;;16.13;100.00;99257.84;5032126;28;803;-61
2022/06/08 03:24:29;;;;;;;;;;;;;;;16.34;100.00;99250.66;5032007;28;838;-61
2022/06/08 03:26:58;;;;;;;;;;;;;;;16.49;100.00;99250.91;5032030;28;866;-61
2022/06/08 03:29:26;;;;;;;;;;;;;;;16.58;100.00;99247.38;5031793;28;1259;-61
2022/06/08 03:31:53;;;;;;;;;;;;;;;16.66;100.00;99257.03;5031951;28;799;-61
2022/06/08 03:34:19;;;;;;;;;;;;;;;16.78;100.00;99258.97;5031824;28;1984;-61
2022/06/08 03:36:46;;;;;;;;;;;;;;;16.94;100.00;99260.75;5032006;28;906;-61
2022/06/08 03:39:14;;;;;;;;;;;;;;;17.13;100.00;99268.00;5031849;28;885;-61
2022/06/08 03:41:40;;;;;;;;;;;;;;;17.33;100.00;99270.38;5031712;28;826;-61
2022/06/08 03:44:07;;;;;;;;;;;;;;;17.47;100.00;99268.22;5031698;28;826;-62
2022/06/08 03:46:36;;;;;;;;;;;;;;;17.58;100.00;99262.97;5031616;28;1211;-61
2022/06/08 03:49:03;;;;;;;;;;;;;;;17.64;100.00;99257.53;5014032;28;869;-61
2022/06/08 03:51:30;;;;;;;;;;;;;;;17.69;100.00;99268.09;5031648;28;815;-61
2022/06/08 03:54:00;;;;;;;;;;;;;;;17.73;100.00;99269.50;5030941;28;1947;-61
2022/06/08 03:56:27;;;;;;;;;;;;;;;17.81;100.00;99269.19;5031588;28;826;-61
2022/06/08 03:58:54;;;;;;;;;;;;;;;17.88;100.00;99278.09;5031500;28;870;-61
2022/06/08 04:01:21;;;;;;;;;;;;;;;17.95;100.00;99271.41;5031513;28;795;-61
2022/06/08 04:03:50;;;;;;;;;;;;;;;17.89;100.00;99276.06;5031462;28;779;-61
2022/06/08 04:06:18;;;;;;;;;;;;;;;17.80;100.00;99276.03;5031499;28;795;-61
2022/06/08 04:08:44;;;;;;;;;;;;;;;17.75;100.00;99283.00;5031449;28;855;-61
2022/06/08 04:11:12;;;;;;;;;;;;;;;17.75;100.00;99286.59;5031304;28;894;-61
2022/06/08 04:13:38;;;;;;;;;;;;;;;17.83;100.00;99287.06;5031277;28;1882;-61
2022/06/08 04:16:05;;;;;;;;;;;;;;;17.88;100.00;99300.44;5031451;28;811;-61
2022/06/08 04:18:32;;;;;;;;;;;;;;;17.97;100.00;99290.50;5031378;28;834;-61
2022/06/08 04:21:00;;;;;;;;;;;;;;;18.01;100.00;99297.50;5031473;28;807;-61
2022/06/08 04:23:27;;;;;;;;;;;;;;;18.03;100.00;99289.44;5031253;28;795;-61
2022/06/08 04:25:55;;;;;;;;;;;;;;;18.11;100.00;99296.22;5031279;28;795;-61
2022/06/08 04:28:22;;;;;;;;;;;;;;;18.17;100.00;99297.16;5031302;28;970;-61
2022/06/08 04:30:48;;;;;;;;;;;;;;;18.29;100.00;99291.91;5031023;28;1321;-61
2022/06/08 04:33:15;;;;;;;;;;;;;;;18.43;100.00;99290.47;5031149;28;1969;-61
2022/06/08 04:35:41;;;;;;;;;;;;;;;18.47;100.00;99279.88;5031199;28;861;-61
2022/06/08 04:38:07;;;;;;;;;;;;;;;18.49;100.00;99278.16;5031123;28;901;-61
2022/06/08 04:40:35;;;;;;;;;;;;;;;18.50;100.00;99281.75;5031110;28;850;-61
2022/06/08 04:43:02;;;;;;;;;;;;;;;18.47;100.00;99283.44;5031127;28;857;-61
2022/06/08 04:45:29;;;;;;;;;;;;;;;18.52;100.00;99288.44;5031127;28;803;-61
2022/06/08 04:47:56;;;;;;;;;;;;;;;18.56;100.00;99289.06;5013322;28;859;-61
2022/06/08 04:50:22;;;;;;;;;;;;;;;18.49;100.00;99286.56;5031065;28;811;-61
2022/06/08 04:52:49;;;;;;;;;;;;;;;18.38;100.00;99288.31;5030979;28;1897;-61
2022/06/08 04:55:16;;;;;;;;;;;;;;;18.29;100.00;99280.69;5031031;28;846;-62
2022/06/08 04:57:42;;;;;;;;;;;;;;;18.26;100.00;99290.00;5031074;28;826;-60
2022/06/08 05:00:12;;;;;;;;;;;;;;;18.23;100.00;99288.16;5030918;28;823;-60
2022/06/08 05:02:45;;;;;;;;;;;;;;;18.16;100.00;99292.84;5030984;28;799;-61
2022/06/08 05:05:13;;;;;;;;;;;;;;;18.06;100.00;99288.47;5031572;28;892;-61
2022/06/08 05:07:39;;;;;;;;;;;;;;;18.10;100.00;99289.09;5035533;28;767;-61
2022/06/08 05:10:06;;;;;;;;;;;;;;;18.13;100.00;99295.78;5034870;28;854;-61
2022/06/08 05:24:45;;;;;;;;;;;;;;;19.49;94.30;99292.25;5034340;28;684;-61
2022/06/08 05:27:12;;;;;;;;;;;;;;;20.22;91.09;99290.19;5034152;28;858;-61
2022/06/08 05:29:38;;;;;;;;;;;;;;;20.65;87.47;99295.56;5034023;28;1194;-61
2022/06/08 05:32:05;;;;;;;;;;;;;;;21.70;83.68;99283.66;5034286;28;930;-62
2022/06/08 05:34:32;;;;;;;;;;;;;;;22.29;78.03;99281.78;5034082;28;1914;-61
2022/06/08 05:36:57;;;;;;;;;;;;;;;21.63;78.55;99286.84;5033952;28;1261;-61
2022/06/08 05:39:24;;;;;;;;;;;;;;;21.29;82.80;99296.84;5033817;28;943;-60
2022/06/08 05:41:51;;;;;;;;;;;;;;;21.16;81.90;99297.94;5033908;28;819;-61
2022/06/08 05:44:20;;;;;;;;;;;;;;;20.75;85.26;99297.03;5033887;28;804;-61
2022/06/08 05:46:48;;;;;;;;;;;;;;;20.46;84.52;99301.38;5034023;28;858;-61
2022/06/08 05:49:15;;;;;;;;;;;;;;;20.88;84.24;99308.72;5033799;28;846;-60
2022/06/08 05:51:42;;;;;;;;;;;;;;;21.40;81.13;99314.66;5033635;28;905;-61
2022/06/08 05:54:08;;;;;;;;;;;;;;;21.10;81.75;99310.34;5033601;28;1885;-61
2022/06/08 05:56:35;;;;;;;;;;;;;;;20.93;83.64;99316.50;5033801;28;886;-61
2022/06/08 05:59:03;;;;;;;;;;;;;;;21.25;79.09;99319.53;5033544;28;831;-60
2022/06/08 06:01:31;;;;;;;;;;;;;;;21.34;82.10;99318.66;5033911;28;807;-61
2022/06/08 06:04:00;;;;;;;;;;;;;;;22.02;80.07;99323.94;5033524;28;823;-61
2022/06/08 06:06:28;;;;;;;;;;;;;;;23.47;73.46;99310.13;5034150;28;831;-61
2022/06/08 06:08:54;;;;;;;;;;;;;;;23.79;74.37;99314.47;5033689;28;851;-61
2022/06/08 06:11:21;;;;;;;;;;;;;;;24.36;73.76;99317.47;5034070;28;889;-61
2022/06/08 06:13:48;;;;;;;;;;;;;;;24.84;65.89;99317.31;5033357;28;1953;-62
2022/06/08 06:16:15;;;;;;;;;;;;;;;24.41;74.12;99322.34;5033748;28;802;-61
2022/06/08 06:18:41;;;;;;;;;;;;;;;23.99;78.60;99324.78;5033342;28;772;-61
2022/06/08 06:21:14;;;;;;;;;;;;;;;23.57;81.10;99323.53;5033217;28;827;-61
2022/06/08 06:23:40;;;;;;;;;;;;;;;23.16;84.80;99335.06;5033216;28;799;-61
2022/06/08 06:26:07;;;;;;;;;;;;;;;23.33;82.53;99338.00;5033018;28;851;-62
2022/06/08 06:28:34;;;;;;;;;;;;;;;23.26;83.49;99334.88;5033227;28;896;-61
2022/06/08 06:31:00;;;;;;;;;;;;;;;23.18;83.01;99329.69;5032701;28;1432;-61
2022/06/08 06:33:27;;;;;;;;;;;;;;;23.13;84.94;99338.09;5032923;28;1957;-61
2022/06/08 06:35:56;;;;;;;;;;;;;;;23.24;82.88;99335.38;5032927;28;862;-61
2022/06/08 06:38:22;;;;;;;;;;;;;;;23.01;82.99;99334.44;5032766;28;856;-61
2022/06/08 06:40:49;;;;;;;;;;;;;;;22.91;83.80;99336.63;5032731;28;929;-61
2022/06/08 06:43:15;;;;;;;;;;;;;;;22.95;84.53;99333.59;5032826;28;910;-61
2022/06/08 06:45:42;;;;;;;;;;;;;;;22.82;83.80;99334.00;5032728;28;799;-61
2022/06/08 06:48:08;;;;;;;;;;;;;;;22.63;86.28;99339.94;5032940;28;846;-61
2022/06/08 06:50:35;;;;;;;;;;;;;;;22.29;87.09;99335.25;5032609;28;878;-61
2022/06/08 06:53:02;;;;;;;;;;;;;;;21.90;89.05;99335.53;5032632;28;1893;-61
2022/06/08 06:55:30;;;;;;;;;;;;;;;21.58;90.27;99335.38;5033038;28;874;-61
2022/06/08 06:57:59;;;;;;;;;;;;;;;21.48;91.65;99334.72;5032454;28;851;-61
2022/06/08 07:00:26;;;;;;;;;;;;;;;21.38;91.79;99333.28;5032485;28;871;-61
2022/06/08 07:02:53;;;;;;;;;;;;;;;21.28;92.10;99337.47;5032466;28;858;-61
2022/06/08 07:05:21;;;;;;;;;;;;;;;21.07;92.18;99337.38;5032341;28;835;-61
2022/06/08 07:07:48;;;;;;;;;;;;;;;20.94;92.55;99337.69;5032554;28;823;-61
2022/06/08 07:10:15;;;;;;;;;;;;;;;20.82;92.91;99333.13;5032234;28;894;-61
2022/06/08 07:12:43;;;;;;;;;;;;;;;20.73;93.44;99336.06;5032144;28;1898;-61
2022/06/08 07:15:11;;;;;;;;;;;;;;;20.57;93.02;99334.47;5032292;28;811;-61
2022/06/08 07:17:38;;;;;;;;;;;;;;;20.56;93.73;99332.91;5032101;28;862;-61
2022/06/08 07:20:06;;;;;;;;;;;;;;;20.84;93.45;99329.84;5032304;28;966;-61
2022/06/08 07:22:33;;;;;;;;;;;;;;;21.24;92.02;99334.84;5032355;28;823;-61
2022/06/08 07:25:00;;;;;;;;;;;;;;;21.77;91.03;99338.69;5032059;28;870;-61
2022/06/08 07:27:27;;;;;;;;;;;;;;;22.35;89.24;99336.84;5031978;28;819;-61
2022/06/08 07:29:55;;;;;;;;;;;;;;;22.53;87.55;99334.97;5030830;28;1195;-61
2022/06/08 07:32:21;;;;;;;;;;;;;;;22.46;88.01;99338.25;5031998;28;814;-61
2022/06/08 07:34:49;;;;;;;;;;;;;;;22.21;88.50;99335.66;5031816;28;1957;-61
2022/06/08 07:37:15;;;;;;;;;;;;;;;21.82;88.75;99338.75;5031747;28;815;-61
2022/06/08 07:39:41;;;;;;;;;;;;;;;21.35;90.52;99342.66;5031820;28;838;-60
2022/06/08 07:42:08;;;;;;;;;;;;;;;21.00;92.03;99341.38;5031756;28;882;-60
2022/06/08 07:44:35;;;;;;;;;;;;;;;20.38;91.77;99328.25;5031735;28;898;-60
2022/06/08 07:47:02;;;;;;;;;;;;;;;19.64;95.65;99339.97;5031720;28;846;-61
2022/06/08 07:49:38;;;;;;;;;;;;;;;19.01;99.70;99339.81;5031730;28;822;-62
2022/06/08 07:55:08;;;;;;;;;;;;;;;18.82;100.00;99332.69;5031685;28;629;-62
2022/06/08 07:57:39;;;;;;;;;;;;;;;19.01;100.00;99333.41;5013842;28;1288;-62
2022/06/08 08:00:06;;;;;;;;;;;;;;;19.30;100.00;99327.25;5031719;28;883;-61
2022/06/08 08:02:34;;;;;;;;;;;;;;;20.03;97.80;99336.47;5031479;28;953;-63
2022/06/08 08:04:59;;;;;;;;;;;;;;;22.91;85.06;99328.16;5013924;28;1671;-64
2022/06/08 08:07:26;;;;;;;;;;;;;;;25.71;76.68;99323.13;5031387;28;842;-63
2022/06/08 08:09:53;;;;;;;;;;;;;;;26.76;74.70;99324.44;5013769;28;878;-63
2022/06/08 08:12:19;;;;;;;;;;;;;;;26.53;74.36;99330.22;5031573;28;859;-63
2022/06/08 08:14:46;;;;;;;;;;;;;;;25.93;79.35;99324.38;5031488;28;1870;-63
2022/06/08 08:17:12;;;;;;;;;;;;;;;25.86;74.28;99331.28;5031326;28;878;-62
2022/06/08 08:19:39;;;;;;;;;;;;;;;25.70;73.91;99327.25;5031352;28;850;-63
2022/06/08 08:22:06;;;;;;;;;;;;;;;25.92;73.24;99325.66;5031343;28;854;-62
2022/06/08 08:24:33;;;;;;;;;;;;;;;26.92;71.12;99325.59;5031274;28;846;-62
2022/06/08 08:27:00;;;;;;;;;;;;;;;26.43;72.32;99323.34;5031279;28;795;-63
2022/06/08 08:29:27;;;;;;;;;;;;;;;25.23;74.44;99321.44;5031280;28;1213;-63
2022/06/08 08:31:54;;;;;;;;;;;;;;;24.51;78.63;99325.75;5031571;28;834;-62
2022/06/08 08:34:21;;;;;;;;;;;;;;;24.31;80.41;99321.06;5031156;28;1985;-62
2022/06/08 08:36:48;;;;;;;;;;;;;;;24.05;79.88;99325.59;5031136;28;842;-63
2022/06/08 08:39:15;;;;;;;;;;;;;;;24.16;79.72;99319.22;5031215;28;952;-62
2022/06/08 08:44:31;;;;;;;;;;;;;;;28.05;69.68;99325.25;5035084;28;622;-64
2022/06/08 08:47:10;;;;;;;;;;;;;;;27.63;70.26;99333.97;5034990;28;834;-63
2022/06/08 08:49:40;;;;;;;;;;;;;;;26.99;72.23;99330.69;5034918;28;972;-64
2022/06/08 08:52:36;;;;;;;;;;;;;;;26.21;71.86;99329.91;5034886;28;862;-63
2022/06/08 08:55:21;;;;;;;;;;;;;;;25.07;65.32;99331.41;4954526;28;1228;-61
2022/06/08 08:57:56;;;;;;;;;;;;;;;24.45;73.48;99323.66;4954666;29;815;-61
2022/06/08 09:00:45;;;;;;;;;;;;;;;24.37;73.79;99328.25;4954472;29;956;-62
2022/06/08 09:03:17;;;;;;;;;;;;;;;25.67;70.89;99325.47;4946571;29;1419;-63
2022/06/08 09:05:45;;;;;;;;;;;;;;;26.80;69.29;99324.91;4954329;29;1067;-62
2022/06/08 09:08:15;;;;;;;;;;;;;;;27.17;70.65;99315.84;4954414;29;910;-62
2022/06/08 09:10:42;;;;;;;;;;;;;;;27.41;72.57;99311.50;4954418;29;884;-62
2022/06/08 09:13:15;;;;;;;;;;;;;;;27.37;66.26;99311.78;4954265;29;1890;-62
2022/06/08 09:15:45;;;;;;;;;;;;;;;27.20;66.40;99309.09;4954276;29;820;-63
2022/06/08 09:18:30;;;;;;;;;;;;;;;27.48;63.77;99296.72;4954166;29;1055;-63
2022/06/08 09:20:58;;;;;;;;;;;;;;;28.20;69.59;99294.31;4954155;29;784;-63
2022/06/08 09:23:39;;;;;;;;;;;;;;;28.94;65.26;99287.53;4937986;29;1312;-63
2022/06/08 09:26:12;;;;;;;;;;;;;;;29.17;66.62;99299.31;4954110;29;947;-62
2022/06/08 09:28:39;;;;;;;;;;;;;;;28.82;67.03;99301.16;4953995;29;938;-63
2022/06/08 09:31:22;;;;;;;;;;;;;;;28.57;66.86;99297.69;4968601;28;1426;-63
2022/06/08 09:33:49;;;;;;;;;;;;;;;27.66;66.85;99300.91;4994796;28;1926;-62
2022/06/08 09:36:26;;;;;;;;;;;;;;;26.44;68.17;99322.06;4994538;28;875;-62
2022/06/08 09:38:54;;;;;;;;;;;;;;;25.03;70.01;99313.97;4994753;28;835;-62
2022/06/08 09:44:28;;;;;;;;;;;;;;;23.60;74.33;99307.66;4994952;28;618;-61
2022/06/08 09:53:14;;;;;;;;;;;;;;;23.26;76.30;99307.47;4993874;28;1890;-61
2022/06/08 09:55:59;;;;;;;;;;;;;;;23.05;77.83;99311.69;4994356;28;917;-61
2022/06/08 09:58:40;;;;;;;;;;;;;;;22.57;76.48;99322.22;4994310;28;827;-61
2022/06/08 10:29:49;;;;;;;;;;;;;;;18.02;100.00;99310.22;5536638;22;1690;-59
2022/06/08 10:32:34;;;;;;;;;;;;;;;18.28;100.00;99313.47;5033252;28;814;-58
2022/06/08 10:35:13;;;;;;;;;;;;;;;18.55;100.00;99317.50;5033004;28;854;-60
2022/06/08 10:37:41;;;;;;;;;;;;;;;18.90;100.00;99311.53;5032987;28;850;-60
2022/06/08 10:40:15;;;;;;;;;;;;;;;19.15;100.00;99318.75;5032843;28;885;-60
2022/06/08 10:42:43;;;;;;;;;;;;;;;19.51;100.00;99305.81;5032849;28;971;-61
2022/06/08 10:45:22;;;;;;;;;;;;;;;19.93;100.00;99304.94;5032725;28;880;-61
2022/06/08 10:48:09;;;;;;;;;;;;;;;20.36;100.00;99308.31;5032787;28;842;-61
2022/06/08 10:50:38;;;;;;;;;;;;;;;20.97;100.00;99314.25;5032784;28;913;-62
2022/06/08 10:56:26;;;;;;;;;;;;;;;21.48;99.76;99305.81;5032643;28;656;-62
2022/06/08 10:58:59;;;;;;;;;;;;;;;21.81;97.36;99306.28;5032529;28;806;-63
2022/06/08 11:01:46;;;;;;;;;;;;;;;22.17;95.95;99306.97;5032720;28;818;-63
2022/06/08 11:04:32;;;;;;;;;;;;;;;22.55;93.39;99299.44;5032113;28;1069;-64
2022/06/08 11:07:04;;;;;;;;;;;;;;;22.75;89.88;99303.47;5014761;28;1370;-64
2022/06/08 11:09:33;;;;;;;;;;;;;;;23.16;88.46;99297.66;5032405;28;795;-66
2022/06/08 11:12:03;;;;;;;;;;;;;;;23.56;87.90;99290.22;5032478;28;861;-64
2022/06/08 11:14:50;;;;;;;;;;;;;;;23.87;85.26;99294.97;5032216;28;1893;-66
2022/06/08 11:17:17;;;;;;;;;;;;;;;24.05;81.34;99296.59;5032185;28;917;-66
2022/06/08 11:19:45;;;;;;;;;;;;;;;23.94;80.85;99297.34;5032400;28;803;-66
2022/06/08 11:22:32;;;;;;;;;;;;;;;24.02;82.00;99286.31;5032476;28;830;-67
2022/06/08 11:25:03;;;;;;;;;;;;;;;24.17;79.04;99283.28;5031894;28;1101;-68
2022/06/08 11:27:32;;;;;;;;;;;;;;;23.94;80.07;99276.78;5032118;28;822;-69
2022/06/08 11:30:23;;;;;;;;;;;;;;;23.82;80.94;99271.13;5031917;28;1377;-68
2022/06/08 11:33:11;;;;;;;;;;;;;;;23.64;82.37;99271.50;5021496;28;1971;-68
2022/06/08 11:35:57;;;;;;;;;;;;;;;23.64;82.52;99280.75;5031962;28;885;-68
2022/06/08 11:38:46;;;;;;;;;;;;;;;23.81;82.82;99280.88;5031758;28;822;-69
2022/06/08 11:41:28;;;;;;;;;;;;;;;23.94;82.31;99285.25;5014171;28;1295;-68
2022/06/08 11:43:56;;;;;;;;;;;;;;;23.72;82.70;99278.22;5032078;28;881;-68
2022/06/08 11:46:29;;;;;;;;;;;;;;;23.46;81.87;99274.78;5031801;28;815;-67
2022/06/08 11:48:56;;;;;;;;;;;;;;;23.40;82.37;99278.31;5031691;28;857;-67
2022/06/08 11:51:50;;;;;;;;;;;;;;;23.77;81.13;99262.63;5031692;28;846;-68
2022/06/08 11:54:22;;;;;;;;;;;;;;;24.30;80.14;99268.66;5029319;28;1886;-68
2022/06/08 11:57:12;;;;;;;;;;;;;;;24.49;76.06;99264.09;5013808;28;1214;-67
2022/06/08 11:59:40;;;;;;;;;;;;;;;24.72;76.18;99262.06;5031758;28;811;-68
2022/06/08 12:02:21;;;;;;;;;;;;;;;24.57;76.50;99265.13;5031523;28;831;-68
2022/06/08 12:04:51;;;;;;;;;;;;;;;24.48;77.46;99270.25;5031637;28;815;-67
2022/06/08 12:07:36;;;;;;;;;;;;;;;25.01;75.89;99257.94;5031582;28;913;-67
2022/06/08 12:10:05;;;;;;;;;;;;;;;25.46;73.45;99263.53;5031565;28;897;-65
2022/06/08 12:12:32;;;;;;;;;;;;;;;25.47;72.70;99264.28;5031603;28;850;-66
2022/06/08 12:15:19;;;;;;;;;;;;;;;25.57;70.80;99256.28;5031854;28;1886;-66
2022/06/08 12:17:46;;;;;;;;;;;;;;;25.49;69.28;99258.13;5021284;28;1283;-66
2022/06/08 12:20:30;;;;;;;;;;;;;;;25.25;70.41;99263.06;5035576;28;791;-65
2022/06/08 12:22:59;;;;;;;;;;;;;;;25.01;71.83;99255.13;5035947;28;794;-65
2022/06/08 12:25:27;;;;;;;;;;;;;;;24.93;69.67;99251.28;5035644;28;882;-65
2022/06/08 12:27:58;;;;;;;;;;;;;;;24.51;69.68;99255.13;5035330;28;906;-63
2022/06/08 12:30:27;;;;;;;;;;;;;;;24.02;70.75;99253.22;5035141;28;1247;-63
2022/06/08 12:33:22;;;;;;;;;;;;;;;23.66;72.08;99252.03;5035228;28;1918;-63
2022/06/08 12:35:53;;;;;;;;;;;;;;;23.44;73.81;99245.00;5035256;28;972;-62
2022/06/08 12:38:22;;;;;;;;;;;;;;;23.35;75.68;99245.22;5035401;28;1159;-62
2022/06/08 12:41:05;;;;;;;;;;;;;;;23.87;75.10;99235.72;5035846;28;862;-64
2022/06/08 12:43:49;;;;;;;;;;;;;;;26.16;67.05;99237.22;5035157;28;826;-61
2022/06/08 12:46:24;;;;;;;;;;;;;;;27.90;61.29;99231.97;5035057;28;905;-63
2022/06/08 12:48:58;;;;;;;;;;;;;;;28.82;58.33;99230.06;5035024;28;872;-64
2022/06/08 12:51:32;;;;;;;;;;;;;;;29.40;55.92;99232.09;5034812;28;859;-63
2022/06/08 12:54:01;;;;;;;;;;;;;;;29.38;56.71;99237.63;5034900;28;1910;-63
2022/06/08 12:56:29;;;;;;;;;;;;;;;28.85;56.35;99246.81;5034886;28;842;-63
2022/06/08 12:58:56;;;;;;;;;;;;;;;27.66;56.46;99244.91;5035060;28;850;-61
2022/06/08 13:01:24;;;;;;;;;;;;;;;26.28;62.36;99239.47;5034533;28;954;-62
2022/06/08 13:03:52;;;;;;;;;;;;;;;26.75;60.85;99243.53;5034761;28;926;-62
2022/06/08 13:06:20;;;;;;;;;;;;;;;27.80;61.43;99237.25;5034652;28;917;-63
2022/06/08 13:08:49;;;;;;;;;;;;;;;28.61;56.63;99236.34;5034625;28;802;-63
2022/06/08 13:11:18;;;;;;;;;;;;;;;29.04;58.77;99240.28;5035356;28;783;-63
2022/06/08 13:13:46;;;;;;;;;;;;;;;29.79;59.88;99236.28;5034626;28;1955;-63
2022/06/08 13:16:21;;;;;;;;;;;;;;;30.07;59.01;99232.03;5034551;28;803;-63
2022/06/08 13:18:48;;;;;;;;;;;;;;;29.58;58.27;99226.88;5034394;28;878;-63
2022/06/08 13:21:15;;;;;;;;;;;;;;;30.09;58.01;99230.16;5034439;28;905;-64
2022/06/08 13:23:42;;;;;;;;;;;;;;;30.26;56.47;99229.78;5034554;28;882;-63
2022/06/08 13:26:20;;;;;;;;;;;;;;;30.29;53.80;99228.69;5034242;28;810;-62
2022/06/08 13:28:48;;;;;;;;;;;;;;;29.11;59.42;99222.59;5034557;28;902;-62
2022/06/08 13:31:22;;;;;;;;;;;;;;;27.28;63.33;99230.66;5034329;28;1377;-62
2022/06/08 13:33:56;;;;;;;;;;;;;;;25.53;68.67;99224.66;5034118;28;1957;-62
2022/06/08 13:36:24;;;;;;;;;;;;;;;24.52;74.63;99220.72;5034125;28;878;-61
2022/06/08 13:39:13;;;;;;;;;;;;;;;23.92;73.84;99222.91;5034206;28;857;-62
2022/06/08 13:41:41;;;;;;;;;;;;;;;25.19;70.80;99217.03;5023695;28;1238;-62
2022/06/08 13:44:15;;;;;;;;;;;;;;;26.72;64.14;99214.19;5033928;28;851;-61
2022/06/08 13:46:43;;;;;;;;;;;;;;;27.50;62.18;99206.16;5033932;28;830;-63
2022/06/08 13:49:13;;;;;;;;;;;;;;;28.26;61.81;99198.41;5033962;28;881;-63
2022/06/08 13:51:41;;;;;;;;;;;;;;;28.88;60.33;99202.31;5033829;28;815;-63
2022/06/08 13:54:16;;;;;;;;;;;;;;;29.33;61.60;99200.72;5034044;28;1885;-62
2022/06/08 13:56:43;;;;;;;;;;;;;;;29.54;59.09;99187.34;5033645;28;955;-63
2022/06/08 13:59:10;;;;;;;;;;;;;;;29.78;58.65;99192.00;5033886;28;830;-62
2022/06/08 14:01:38;;;;;;;;;;;;;;;29.48;59.19;99186.69;5033643;28;898;-62
2022/06/08 14:04:11;;;;;;;;;;;;;;;28.92;60.14;99191.38;5033566;28;943;-62
2022/06/08 14:14:54;;;;;;;;;;;;;;;27.13;68.66;99189.81;5033409;28;1882;-62
2022/06/08 14:17:21;;;;;;;;;;;;;;;26.71;70.31;99177.84;5033662;28;814;-62
2022/06/08 14:19:52;;;;;;;;;;;;;;;26.16;72.42;99194.75;5033321;28;822;-61
2022/06/08 14:22:21;;;;;;;;;;;;;;;25.78;69.56;99188.81;5033641;28;830;-61
2022/06/08 14:24:51;;;;;;;;;;;;;;;25.26;74.25;99193.91;5033525;28;850;-61
2022/06/08 14:27:18;;;;;;;;;;;;;;;24.65;76.69;99187.06;5033215;28;818;-62
2022/06/08 14:29:45;;;;;;;;;;;;;;;24.04;79.24;99187.78;5032803;28;1389;-61